Terminal Aerodrome Forecast
Issued by NWS

Home | Current Version | Previous Version | Text Only | Print | Product List | Glossary On
Versions: 1 2 3 4 5 6 7 8 9 10 11 12 13 14 15 16 17 18 19
000
FTUS44 KTSA 211135
TAFMLC
TAF
KMLC 211135Z 2112/2212 00000KT 1SM BR SKC
      TEMPO 2112/2115 1/4SM FG VV002
     FM211600 34012KT P6SM SKC
     FM220000 35004KT P6SM SKC
     FM220500 00000KT P6SM SKC=

USA.gov is the U.S. government's official web portal to all federal, state and local government web resources and services.